Time;durP1;ratioP1;P1;durP2;ratioP2;P2;SDS_P1;SDS_P2;PMS_P1;PMS_P2;Temp;Humidity;BMP_temperature;BMP_pressure;BME280_temperature;BME280_humidity;BME280_pressure;Samples;Min_cycle;Max_cycle;Signal;HPM_P1;HPM_P2
2022/09/08 00:00:43;;;;;;;;;;;17.90;99.90;;;;;;5038344;28;19925;-69
2022/09/08 00:03:12;;;;;;;;;;;17.90;99.90;;;;;;5043368;28;20330;-68
2022/09/08 00:05:43;;;;;;;;;;;17.90;99.90;;;;;;5037667;28;19956;-68
2022/09/08 00:08:10;;;;;;;;;;;18.00;99.90;;;;;;5038010;28;20016;-68
2022/09/08 00:10:37;;;;;;;;;;;18.00;99.90;;;;;;5036619;28;20323;-68
2022/09/08 00:13:06;;;;;;;;;;;17.90;99.90;;;;;;5036164;28;19955;-70
2022/09/08 00:15:32;;;;;;;;;;;17.90;99.90;;;;;;5036618;28;19924;-69
2022/09/08 00:17:59;;;;;;;;;;;17.90;99.90;;;;;;5042422;28;19925;-68
2022/09/08 00:20:28;;;;;;;;;;;18.00;99.90;;;;;;5034696;28;19932;-68
2022/09/08 00:22:55;;;;;;;;;;;18.00;99.90;;;;;;5035666;28;19979;-68
2022/09/08 00:25:22;;;;;;;;;;;18.00;99.90;;;;;;5038447;28;19928;-68
2022/09/08 00:27:49;;;;;;;;;;;17.90;99.90;;;;;;5032126;28;19933;-68
2022/09/08 00:30:16;;;;;;;;;;;17.90;99.90;;;;;;5033626;28;19932;-68
2022/09/08 00:32:43;;;;;;;;;;;17.90;99.90;;;;;;5035297;28;19931;-68
2022/09/08 00:35:14;;;;;;;;;;;17.80;99.90;;;;;;5035608;28;19928;-68
2022/09/08 00:37:42;;;;;;;;;;;17.80;99.90;;;;;;5027153;28;20015;-68
2022/09/08 00:40:09;;;;;;;;;;;17.80;99.90;;;;;;5034349;28;19925;-68
2022/09/08 00:42:36;;;;;;;;;;;17.80;99.90;;;;;;5034882;28;19932;-65
2022/09/08 00:45:03;;;;;;;;;;;17.80;99.90;;;;;;5031934;28;19925;-68
2022/09/08 00:47:31;;;;;;;;;;;17.80;99.90;;;;;;5056736;28;19925;-68
2022/09/08 00:50:01;;;;;;;;;;;17.90;99.90;;;;;;5031057;28;20424;-68
2022/09/08 00:52:29;;;;;;;;;;;17.90;99.90;;;;;;5057927;28;19929;-70
2022/09/08 00:54:57;;;;;;;;;;;17.90;99.90;;;;;;5031764;28;20016;-68
2022/09/08 00:57:24;;;;;;;;;;;17.90;99.90;;;;;;5033006;28;19932;-68
2022/09/08 00:59:53;;;;;;;;;;;17.90;99.90;;;;;;5028475;28;19925;-69
2022/09/08 01:02:23;;;;;;;;;;;17.80;99.90;;;;;;5034660;28;19925;-68
2022/09/08 01:04:52;;;;;;;;;;;17.80;99.90;;;;;;5041420;28;19932;-68
2022/09/08 01:13:01;;;;;;;;;;;17.90;99.90;;;;;;5055402;28;20395;-68
2022/09/08 01:15:28;;;;;;;;;;;17.90;99.90;;;;;;5039367;28;20292;-68
2022/09/08 01:17:56;;;;;;;;;;;17.90;99.90;;;;;;5031014;28;19932;-69
2022/09/08 01:20:25;;;;;;;;;;;18.00;99.90;;;;;;5053168;28;19982;-68
2022/09/08 01:23:06;;;;;;;;;;;18.10;99.90;;;;;;5031317;28;19925;-68
2022/09/08 01:25:48;;;;;;;;;;;18.10;99.90;;;;;;5000686;28;19970;-67
2022/09/08 01:28:18;;;;;;;;;;;18.10;99.90;;;;;;5030893;28;19925;-68
2022/09/08 01:30:49;;;;;;;;;;;18.20;99.90;;;;;;5026492;28;19925;-68
2022/09/08 01:33:17;;;;;;;;;;;18.20;99.90;;;;;;5039079;28;19931;-68
2022/09/08 01:35:44;;;;;;;;;;;18.20;99.90;;;;;;5035794;28;19924;-68
2022/09/08 01:38:11;;;;;;;;;;;18.20;99.90;;;;;;5026648;28;19925;-68
2022/09/08 01:40:38;;;;;;;;;;;18.20;99.90;;;;;;5040301;28;20343;-68
2022/09/08 01:43:06;;;;;;;;;;;18.20;99.90;;;;;;5030669;28;20352;-67
2022/09/08 01:45:34;;;;;;;;;;;18.20;99.90;;;;;;5057334;28;19932;-68
2022/09/08 01:48:01;;;;;;;;;;;18.20;99.90;;;;;;5041776;28;19924;-68
2022/09/08 01:50:28;;;;;;;;;;;18.10;99.90;;;;;;5032446;28;19925;-68
2022/09/08 01:52:54;;;;;;;;;;;18.10;99.90;;;;;;5034293;28;19925;-68
2022/09/08 01:55:21;;;;;;;;;;;18.10;99.90;;;;;;5034207;28;19925;-69
2022/09/08 01:57:48;;;;;;;;;;;17.90;99.90;;;;;;5040901;28;19932;-64
2022/09/08 02:00:15;;;;;;;;;;;17.80;99.90;;;;;;5033031;28;20003;-68
2022/09/08 02:02:43;;;;;;;;;;;17.80;99.90;;;;;;5034150;28;19929;-68
2022/09/08 02:05:11;;;;;;;;;;;17.80;99.90;;;;;;5040418;28;19928;-68
2022/09/08 02:07:37;;;;;;;;;;;17.80;99.90;;;;;;5034415;28;19948;-68
2022/09/08 02:10:05;;;;;;;;;;;17.80;99.90;;;;;;5037158;28;19924;-68
2022/09/08 02:12:32;;;;;;;;;;;17.90;99.90;;;;;;5038894;28;19928;-69
2022/09/08 02:14:58;;;;;;;;;;;17.90;99.90;;;;;;5037958;28;19925;-69
2022/09/08 02:17:25;;;;;;;;;;;17.90;99.90;;;;;;5043031;28;19966;-69
2022/09/08 02:19:53;;;;;;;;;;;17.90;99.90;;;;;;5037422;28;19924;-68
2022/09/08 02:22:20;;;;;;;;;;;17.90;99.90;;;;;;5044035;28;20399;-68
2022/09/08 02:24:47;;;;;;;;;;;17.90;99.90;;;;;;5037920;28;20340;-68
2022/09/08 02:27:13;;;;;;;;;;;17.80;99.90;;;;;;5041661;28;19928;-68
2022/09/08 02:29:40;;;;;;;;;;;17.80;99.90;;;;;;5045621;28;19928;-68
2022/09/08 02:32:07;;;;;;;;;;;17.80;99.90;;;;;;5038726;28;19925;-69
2022/09/08 02:34:34;;;;;;;;;;;17.80;99.90;;;;;;5037140;28;19925;-67
2022/09/08 02:37:02;;;;;;;;;;;17.80;99.90;;;;;;5037669;28;19924;-69
2022/09/08 02:39:30;;;;;;;;;;;17.80;99.90;;;;;;5040714;28;19928;-68
2022/09/08 02:41:57;;;;;;;;;;;17.80;99.90;;;;;;5049697;28;19932;-67
2022/09/08 02:44:24;;;;;;;;;;;17.80;99.90;;;;;;5042673;28;19951;-68
2022/09/08 02:46:50;;;;;;;;;;;17.80;99.90;;;;;;5042854;28;19929;-67
2022/09/08 02:49:17;;;;;;;;;;;17.70;99.90;;;;;;5039041;28;19925;-67
2022/09/08 02:51:44;;;;;;;;;;;17.70;99.90;;;;;;5040750;28;19928;-67
2022/09/08 02:54:12;;;;;;;;;;;17.70;99.90;;;;;;5045557;28;19932;-68
2022/09/08 02:56:39;;;;;;;;;;;17.60;99.90;;;;;;5041070;28;19971;-67
2022/09/08 02:59:06;;;;;;;;;;;17.60;99.90;;;;;;5036672;28;19925;-68
2022/09/08 03:01:32;;;;;;;;;;;17.60;99.90;;;;;;5038817;28;19947;-68
2022/09/08 03:03:59;;;;;;;;;;;17.60;99.90;;;;;;5036706;28;19932;-67
2022/09/08 03:06:26;;;;;;;;;;;17.60;99.90;;;;;;5043790;28;19933;-67
2022/09/08 03:08:53;;;;;;;;;;;17.40;99.90;;;;;;5039860;28;19932;-69
2022/09/08 03:11:21;;;;;;;;;;;17.30;99.90;;;;;;5036858;28;19932;-68
2022/09/08 03:13:48;;;;;;;;;;;17.30;99.90;;;;;;5036550;28;19931;-67
2022/09/08 03:16:15;;;;;;;;;;;17.30;99.90;;;;;;5036767;28;19924;-68
2022/09/08 03:18:42;;;;;;;;;;;17.20;99.90;;;;;;5036812;28;19925;-68
2022/09/08 03:21:10;;;;;;;;;;;17.10;99.90;;;;;;5036069;28;19925;-67
2022/09/08 03:23:38;;;;;;;;;;;17.00;99.90;;;;;;5037113;28;19951;-67
2022/09/08 03:26:05;;;;;;;;;;;17.00;99.90;;;;;;5036610;28;20007;-68
2022/09/08 03:28:33;;;;;;;;;;;17.00;99.90;;;;;;5042844;28;19966;-68
2022/09/08 03:31:00;;;;;;;;;;;17.00;99.90;;;;;;5038670;28;19933;-68
2022/09/08 03:33:28;;;;;;;;;;;17.00;99.90;;;;;;5042672;28;19954;-68
2022/09/08 03:35:55;;;;;;;;;;;17.00;99.90;;;;;;5042572;28;20384;-68
2022/09/08 03:38:22;;;;;;;;;;;16.90;99.90;;;;;;5035559;28;19974;-68
2022/09/08 03:40:49;;;;;;;;;;;16.90;99.90;;;;;;5036882;28;19925;-67
2022/09/08 03:43:15;;;;;;;;;;;16.90;99.90;;;;;;5036215;28;19925;-67
2022/09/08 03:45:44;;;;;;;;;;;16.90;99.90;;;;;;5036493;28;20319;-68
2022/09/08 03:48:12;;;;;;;;;;;16.90;99.90;;;;;;5036329;28;19932;-68
2022/09/08 03:50:39;;;;;;;;;;;16.80;99.90;;;;;;5038408;28;20422;-68
2022/09/08 03:53:05;;;;;;;;;;;16.80;99.90;;;;;;5042355;28;20438;-68
2022/09/08 03:55:32;;;;;;;;;;;16.80;99.90;;;;;;5040217;28;19924;-68
2022/09/08 03:57:59;;;;;;;;;;;16.80;99.90;;;;;;5037041;28;19928;-69
2022/09/08 04:00:26;;;;;;;;;;;16.80;99.90;;;;;;5043050;28;19924;-68
2022/09/08 04:02:55;;;;;;;;;;;16.70;99.90;;;;;;5039640;28;19932;-67
2022/09/08 04:05:21;;;;;;;;;;;16.70;99.90;;;;;;5045484;28;19929;-68
2022/09/08 04:07:48;;;;;;;;;;;16.80;99.90;;;;;;5045505;28;20012;-67
2022/09/08 04:10:15;;;;;;;;;;;16.70;99.90;;;;;;5045032;28;19928;-68
2022/09/08 04:12:42;;;;;;;;;;;16.80;99.90;;;;;;5035916;28;19931;-69
2022/09/08 04:15:10;;;;;;;;;;;16.80;99.90;;;;;;5040304;28;20265;-68
2022/09/08 04:17:36;;;;;;;;;;;16.80;99.90;;;;;;5043588;28;19925;-68
2022/09/08 04:20:05;;;;;;;;;;;16.80;99.90;;;;;;5036924;28;19970;-68
2022/09/08 04:22:32;;;;;;;;;;;16.80;99.90;;;;;;5035465;28;19929;-68
2022/09/08 04:24:59;;;;;;;;;;;16.90;99.90;;;;;;5036725;28;19971;-69
2022/09/08 04:27:25;;;;;;;;;;;16.80;99.90;;;;;;5043367;28;20016;-68
2022/09/08 04:29:52;;;;;;;;;;;16.80;99.90;;;;;;5034669;28;19986;-68
2022/09/08 04:32:19;;;;;;;;;;;16.80;99.90;;;;;;5040615;28;19924;-68
2022/09/08 04:34:49;;;;;;;;;;;16.80;99.90;;;;;;5034150;28;19928;-68
2022/09/08 04:37:18;;;;;;;;;;;16.80;99.90;;;;;;5041571;28;19932;-67
2022/09/08 04:39:44;;;;;;;;;;;16.80;99.90;;;;;;5034491;28;19925;-67
2022/09/08 04:42:11;;;;;;;;;;;16.90;99.90;;;;;;5039151;28;19943;-68
2022/09/08 04:44:38;;;;;;;;;;;16.90;99.90;;;;;;5041557;28;19924;-68
2022/09/08 04:47:05;;;;;;;;;;;16.80;99.90;;;;;;5036578;28;19932;-66
2022/09/08 04:49:32;;;;;;;;;;;16.70;99.90;;;;;;5038524;28;19925;-68
2022/09/08 04:51:58;;;;;;;;;;;16.70;99.90;;;;;;5034665;28;19924;-68
2022/09/08 04:54:26;;;;;;;;;;;16.70;99.90;;;;;;5033700;28;19932;-68
2022/09/08 04:57:02;;;;;;;;;;;16.70;99.90;;;;;;5132266;27;19916;-66
2022/09/08 04:59:29;;;;;;;;;;;16.70;99.90;;;;;;5138471;27;20315;-69
2022/09/08 05:01:55;;;;;;;;;;;16.80;99.90;;;;;;5105349;28;19924;-68
2022/09/08 05:04:22;;;;;;;;;;;16.70;99.90;;;;;;5106415;28;19924;-71
2022/09/08 05:06:49;;;;;;;;;;;16.60;99.90;;;;;;5107834;28;19924;-68
2022/09/08 05:09:16;;;;;;;;;;;16.70;99.90;;;;;;5107660;28;19931;-66
2022/09/08 05:11:42;;;;;;;;;;;16.70;99.90;;;;;;5109344;28;20462;-69
2022/09/08 05:14:11;;;;;;;;;;;16.70;99.90;;;;;;5103948;28;20444;-68
2022/09/08 05:16:37;;;;;;;;;;;16.70;99.90;;;;;;5105981;28;19924;-68
2022/09/08 05:19:06;;;;;;;;;;;16.80;99.90;;;;;;5101693;28;20384;-68
2022/09/08 05:21:34;;;;;;;;;;;16.80;99.90;;;;;;5105086;28;19928;-68
2022/09/08 05:24:01;;;;;;;;;;;16.80;99.90;;;;;;5109118;28;20018;-67
2022/09/08 05:26:28;;;;;;;;;;;16.80;99.90;;;;;;5106703;28;20018;-67
2022/09/08 05:28:55;;;;;;;;;;;16.80;99.90;;;;;;5107756;28;19980;-67
2022/09/08 05:31:24;;;;;;;;;;;16.80;99.90;;;;;;5102318;28;19924;-67
2022/09/08 05:33:51;;;;;;;;;;;16.80;99.90;;;;;;5106966;28;20394;-67
2022/09/08 05:36:19;;;;;;;;;;;16.80;99.90;;;;;;5107302;28;19981;-67
2022/09/08 05:38:47;;;;;;;;;;;16.80;99.90;;;;;;5105227;28;20353;-66
2022/09/08 05:41:14;;;;;;;;;;;16.90;99.90;;;;;;5107315;27;19928;-67
2022/09/08 05:43:40;;;;;;;;;;;16.80;99.90;;;;;;5103926;27;19974;-67
2022/09/08 05:46:08;;;;;;;;;;;16.80;99.90;;;;;;5107552;28;19924;-67
2022/09/08 05:48:37;;;;;;;;;;;16.80;99.90;;;;;;5107272;27;19931;-67
2022/09/08 05:51:08;;;;;;;;;;;16.70;99.90;;;;;;5095100;28;19947;-67
2022/09/08 05:53:35;;;;;;;;;;;16.70;99.90;;;;;;5108599;28;20426;-68
2022/09/08 05:56:03;;;;;;;;;;;16.60;99.90;;;;;;5107278;28;19924;-68
2022/09/08 05:58:30;;;;;;;;;;;16.70;99.90;;;;;;5107155;28;20363;-68
2022/09/08 06:00:57;;;;;;;;;;;16.70;99.90;;;;;;5100740;28;19924;-67
2022/09/08 06:03:24;;;;;;;;;;;16.70;99.90;;;;;;5103225;28;20349;-67
2022/09/08 06:05:52;;;;;;;;;;;16.70;99.90;;;;;;5106289;27;19956;-68
2022/09/08 06:08:20;;;;;;;;;;;16.60;99.90;;;;;;5089193;28;19984;-68
2022/09/08 06:10:51;;;;;;;;;;;16.60;99.90;;;;;;5091069;28;19924;-68
2022/09/08 06:13:18;;;;;;;;;;;16.60;99.90;;;;;;5087983;28;19928;-68
2022/09/08 06:15:45;;;;;;;;;;;16.60;99.90;;;;;;5090618;28;19924;-68
2022/09/08 06:18:12;;;;;;;;;;;16.60;99.90;;;;;;5093341;28;20440;-67
2022/09/08 06:20:38;;;;;;;;;;;16.50;99.90;;;;;;5089010;28;19924;-68
2022/09/08 06:23:06;;;;;;;;;;;16.60;99.90;;;;;;5092175;28;19950;-68
2022/09/08 06:25:38;;;;;;;;;;;16.60;99.90;;;;;;5079315;28;19963;-68
2022/09/08 06:28:10;;;;;;;;;;;16.60;99.90;;;;;;5091520;28;19924;-68
2022/09/08 06:30:37;;;;;;;;;;;16.60;99.90;;;;;;5087098;28;20457;-67
2022/09/08 06:33:08;;;;;;;;;;;16.60;99.90;;;;;;5090158;28;19931;-68
2022/09/08 06:35:35;;;;;;;;;;;16.60;99.90;;;;;;5092541;28;19927;-67
2022/09/08 06:38:05;;;;;;;;;;;16.40;99.90;;;;;;5084184;28;20422;-67
2022/09/08 06:40:34;;;;;;;;;;;16.40;99.90;;;;;;5084148;28;19928;-68
2022/09/08 06:43:03;;;;;;;;;;;16.40;99.90;;;;;;5088224;28;19998;-67
2022/09/08 06:45:31;;;;;;;;;;;16.30;99.90;;;;;;5092797;28;19969;-68
2022/09/08 06:48:12;;;;;;;;;;;16.30;99.90;;;;;;5087419;28;19928;-68
2022/09/08 06:50:41;;;;;;;;;;;16.40;99.90;;;;;;5088818;28;19932;-67
2022/09/08 06:53:23;;;;;;;;;;;16.40;99.90;;;;;;5092584;28;20452;-67
2022/09/08 06:55:53;;;;;;;;;;;16.40;99.90;;;;;;5090077;28;19928;-67
2022/09/08 06:58:23;;;;;;;;;;;16.30;99.90;;;;;;5092395;28;20345;-67
2022/09/08 07:00:53;;;;;;;;;;;16.40;99.90;;;;;;5091927;28;19981;-67
2022/09/08 07:03:30;;;;;;;;;;;16.50;99.90;;;;;;5092180;28;19924;-69
2022/09/08 07:06:05;;;;;;;;;;;16.50;99.90;;;;;;5083979;28;19924;-67
2022/09/08 07:08:52;;;;;;;;;;;16.60;99.90;;;;;;5077730;28;20441;-67
2022/09/08 07:11:33;;;;;;;;;;;16.60;99.90;;;;;;5064709;28;19924;-67
2022/09/08 07:14:04;;;;;;;;;;;16.60;99.90;;;;;;5087255;28;19977;-67
2022/09/08 07:16:35;;;;;;;;;;;16.70;99.90;;;;;;5090501;28;19981;-67
2022/09/08 07:19:05;;;;;;;;;;;16.70;99.90;;;;;;5090780;28;20387;-67
2022/09/08 07:21:37;;;;;;;;;;;16.90;99.90;;;;;;5087253;28;19932;-67
2022/09/08 07:24:04;;;;;;;;;;;16.90;99.90;;;;;;5092122;28;20368;-67
2022/09/08 07:26:37;;;;;;;;;;;16.90;99.90;;;;;;5085366;28;19974;-65
2022/09/08 07:29:06;;;;;;;;;;;16.90;99.90;;;;;;5091521;28;19924;-67
2022/09/08 07:31:38;;;;;;;;;;;17.00;99.90;;;;;;5084082;28;19977;-67
2022/09/08 07:34:07;;;;;;;;;;;17.00;99.90;;;;;;5097085;28;19928;-67
2022/09/08 07:36:35;;;;;;;;;;;17.20;99.90;;;;;;5084259;28;19928;-67
2022/09/08 07:39:04;;;;;;;;;;;17.30;99.90;;;;;;5090307;28;19924;-67
2022/09/08 07:41:35;;;;;;;;;;;17.40;99.90;;;;;;5089617;28;20312;-67
2022/09/08 07:44:06;;;;;;;;;;;17.50;99.90;;;;;;5087992;28;20019;-67
2022/09/08 07:46:40;;;;;;;;;;;17.40;99.90;;;;;;5089287;28;19928;-67
2022/09/08 07:49:11;;;;;;;;;;;17.40;99.90;;;;;;5086243;28;19924;-67
2022/09/08 07:51:41;;;;;;;;;;;17.40;99.90;;;;;;5091489;28;19928;-67
2022/09/08 07:54:26;;;;;;;;;;;17.50;99.90;;;;;;5087446;28;19924;-68
2022/09/08 07:56:58;;;;;;;;;;;17.50;99.90;;;;;;5084428;28;19967;-67
2022/09/08 07:59:31;;;;;;;;;;;17.50;99.90;;;;;;5090552;28;19928;-67
2022/09/08 08:02:00;;;;;;;;;;;17.60;99.90;;;;;;5091515;28;20038;-67
2022/09/08 08:04:33;;;;;;;;;;;17.60;99.90;;;;;;5086486;28;20407;-67
2022/09/08 08:07:04;;;;;;;;;;;17.80;99.90;;;;;;5091445;28;19946;-67
2022/09/08 08:09:35;;;;;;;;;;;18.10;99.90;;;;;;5089320;28;19977;-65
2022/09/08 08:12:06;;;;;;;;;;;17.90;99.90;;;;;;5091107;28;20365;-69
2022/09/08 08:14:38;;;;;;;;;;;18.10;99.90;;;;;;5083259;28;19924;-68
2022/09/08 08:17:11;;;;;;;;;;;17.90;99.90;;;;;;5085702;28;19928;-67
2022/09/08 08:19:52;;;;;;;;;;;17.80;99.90;;;;;;5087746;28;19924;-67
2022/09/08 08:22:26;;;;;;;;;;;18.00;99.90;;;;;;5086811;28;19924;-68
2022/09/08 08:24:58;;;;;;;;;;;18.20;99.90;;;;;;5081030;28;19928;-67
2022/09/08 08:27:29;;;;;;;;;;;18.10;99.90;;;;;;5089151;28;19928;-69
2022/09/08 08:30:13;;;;;;;;;;;18.30;99.90;;;;;;5084758;28;20350;-68
2022/09/08 08:32:42;;;;;;;;;;;18.20;99.90;;;;;;5087824;28;19931;-68
2022/09/08 08:35:14;;;;;;;;;;;18.40;99.90;;;;;;5085743;28;19925;-68
2022/09/08 08:37:41;;;;;;;;;;;18.40;99.90;;;;;;5094763;28;19929;-68
2022/09/08 08:40:17;;;;;;;;;;;18.50;99.90;;;;;;5085762;28;19924;-65
2022/09/08 08:42:53;;;;;;;;;;;18.80;99.90;;;;;;5085013;28;20461;-67
2022/09/08 08:45:25;;;;;;;;;;;18.80;99.90;;;;;;5088861;28;19993;-67
2022/09/08 08:48:01;;;;;;;;;;;18.90;99.90;;;;;;5089056;28;19930;-68
2022/09/08 08:50:42;;;;;;;;;;;19.00;99.90;;;;;;5087040;28;19940;-68
2022/09/08 08:53:22;;;;;;;;;;;18.80;99.90;;;;;;5090929;28;19924;-68
2022/09/08 08:55:55;;;;;;;;;;;18.80;99.90;;;;;;5079585;28;20013;-68
2022/09/08 08:58:31;;;;;;;;;;;18.80;99.90;;;;;;5090576;28;19924;-67
2022/09/08 09:01:04;;;;;;;;;;;18.50;99.90;;;;;;5095040;28;19929;-67
2022/09/08 09:03:41;;;;;;;;;;;18.30;99.90;;;;;;5076197;28;19970;-67
2022/09/08 09:06:13;;;;;;;;;;;18.40;99.90;;;;;;5089367;28;20399;-66
2022/09/08 09:08:58;;;;;;;;;;;18.50;99.90;;;;;;5088884;28;19924;-67
2022/09/08 09:11:33;;;;;;;;;;;18.60;99.90;;;;;;5088369;28;19928;-67
2022/09/08 09:14:23;;;;;;;;;;;18.90;99.90;;;;;;5088599;28;19924;-67
2022/09/08 09:16:54;;;;;;;;;;;18.90;99.90;;;;;;5074628;28;19924;-67
2022/09/08 09:19:28;;;;;;;;;;;19.00;99.90;;;;;;5089997;28;19924;-67
2022/09/08 09:22:01;;;;;;;;;;;19.10;99.90;;;;;;5087373;28;20399;-67
2022/09/08 09:24:38;;;;;;;;;;;19.30;99.90;;;;;;5083457;28;19977;-67
2022/09/08 09:27:12;;;;;;;;;;;19.30;99.90;;;;;;5082335;28;19935;-67
2022/09/08 09:29:41;;;;;;;;;;;19.40;99.90;;;;;;5100376;28;20482;-67
2022/09/08 09:32:26;;;;;;;;;;;19.50;99.90;;;;;;5087524;28;19933;-66
2022/09/08 09:35:06;;;;;;;;;;;19.60;99.90;;;;;;5075823;28;19924;-67
2022/09/08 09:37:43;;;;;;;;;;;19.70;99.90;;;;;;5084598;28;19930;-67
2022/09/08 09:40:25;;;;;;;;;;;19.50;99.90;;;;;;5085433;28;20395;-67
2022/09/08 09:43:05;;;;;;;;;;;19.40;99.90;;;;;;5097175;28;19968;-67
2022/09/08 09:45:50;;;;;;;;;;;19.30;99.90;;;;;;5093704;28;19928;-66
2022/09/08 09:48:44;;;;;;;;;;;19.40;99.90;;;;;;5088282;28;19931;-68
2022/09/08 09:51:20;;;;;;;;;;;19.80;99.90;;;;;;5045265;28;19931;-68
2022/09/08 09:53:56;;;;;;;;;;;20.10;99.90;;;;;;5078812;28;20536;-67
2022/09/08 09:56:36;;;;;;;;;;;20.20;99.90;;;;;;5100992;28;19985;-68
2022/09/08 09:59:18;;;;;;;;;;;20.20;99.90;;;;;;5093425;28;19932;-68
2022/09/08 10:01:54;;;;;;;;;;;20.00;99.90;;;;;;5084214;28;19931;-67
2022/09/08 10:04:46;;;;;;;;;;;19.80;99.90;;;;;;5089633;28;19924;-68
2022/09/08 10:07:28;;;;;;;;;;;19.90;99.90;;;;;;5090064;28;19924;-67
2022/09/08 10:10:07;;;;;;;;;;;20.00;99.90;;;;;;5088657;28;20307;-67
2022/09/08 10:13:01;;;;;;;;;;;20.40;99.90;;;;;;5091380;28;19960;-68
2022/09/08 10:15:49;;;;;;;;;;;20.50;99.90;;;;;;5043821;28;19924;-68
2022/09/08 10:18:30;;;;;;;;;;;20.60;99.90;;;;;;5088391;28;20408;-67
2022/09/08 10:21:02;;;;;;;;;;;20.20;99.90;;;;;;5070771;28;19924;-68
2022/09/08 10:23:47;;;;;;;;;;;20.30;99.90;;;;;;5093587;28;19973;-67
2022/09/08 10:26:29;;;;;;;;;;;20.40;99.90;;;;;;5089005;28;19924;-68
2022/09/08 10:29:14;;;;;;;;;;;20.40;99.90;;;;;;5078345;28;19950;-67
2022/09/08 10:32:08;;;;;;;;;;;20.40;99.90;;;;;;5086450;28;19924;-67
2022/09/08 10:34:49;;;;;;;;;;;20.60;99.90;;;;;;5090210;28;19924;-68
2022/09/08 10:37:25;;;;;;;;;;;20.50;99.90;;;;;;5088038;28;19924;-66
2022/09/08 10:40:04;;;;;;;;;;;20.20;99.90;;;;;;5092554;28;19924;-67
2022/09/08 10:42:41;;;;;;;;;;;20.00;99.90;;;;;;5088791;28;19931;-67
2022/09/08 10:45:18;;;;;;;;;;;20.30;99.90;;;;;;5090932;28;20344;-68
2022/09/08 10:48:01;;;;;;;;;;;20.70;99.90;;;;;;5085046;28;19931;-68
2022/09/08 10:50:28;;;;;;;;;;;21.20;99.90;;;;;;5089532;28;19924;-68
2022/09/08 10:53:04;;;;;;;;;;;21.20;99.90;;;;;;5092731;28;19978;-67
2022/09/08 10:55:36;;;;;;;;;;;20.90;99.90;;;;;;5087878;28;19924;-67
2022/09/08 10:58:30;;;;;;;;;;;20.50;99.90;;;;;;5092446;28;20011;-67
2022/09/08 11:01:07;;;;;;;;;;;20.30;99.90;;;;;;5102907;28;19928;-67
2022/09/08 11:03:43;;;;;;;;;;;20.00;99.90;;;;;;5079634;28;19924;-68
2022/09/08 11:06:16;;;;;;;;;;;19.90;99.90;;;;;;5089983;28;20428;-68
2022/09/08 11:09:03;;;;;;;;;;;19.60;99.90;;;;;;5101223;28;19924;-68
2022/09/08 11:11:54;;;;;;;;;;;19.50;99.90;;;;;;5089574;28;19924;-68
2022/09/08 11:14:29;;;;;;;;;;;19.40;99.90;;;;;;5077727;28;19925;-68
2022/09/08 11:17:09;;;;;;;;;;;19.50;99.90;;;;;;5092276;28;19927;-68
2022/09/08 11:19:38;;;;;;;;;;;19.60;99.90;;;;;;5088846;28;19931;-68
2022/09/08 11:22:23;;;;;;;;;;;19.70;99.90;;;;;;5090442;28;19977;-68
2022/09/08 11:24:57;;;;;;;;;;;19.90;99.90;;;;;;5098831;28;19928;-67
2022/09/08 11:27:30;;;;;;;;;;;19.80;99.90;;;;;;5090180;28;20288;-67
2022/09/08 11:30:05;;;;;;;;;;;19.90;99.90;;;;;;5091759;28;19924;-67
2022/09/08 11:32:35;;;;;;;;;;;24.90;99.90;;;;;;5089250;28;19924;-68
2022/09/08 11:35:08;;;;;;;;;;;27.80;99.90;;;;;;5091785;28;19924;-68
2022/09/08 11:37:51;;;;;;;;;;;30.00;99.90;;;;;;5088195;28;19924;-67
2022/09/08 11:40:39;;;;;;;;;;;29.90;99.90;;;;;;5090257;28;19978;-66
2022/09/08 11:43:20;;;;;;;;;;;28.50;99.90;;;;;;5083199;28;19924;-68
2022/09/08 11:45:53;;;;;;;;;;;29.20;99.90;;;;;;5088624;28;20525;-69
2022/09/08 11:48:31;;;;;;;;;;;29.50;99.90;;;;;;5086010;28;19924;-67
2022/09/08 11:51:05;;;;;;;;;;;30.40;99.90;;;;;;5090308;28;19973;-69
2022/09/08 11:53:46;;;;;;;;;;;30.50;99.90;;;;;;5079638;28;19924;-68
2022/09/08 11:56:18;;;;;;;;;;;30.70;99.90;;;;;;5094811;28;19977;-69
2022/09/08 11:58:55;;;;;;;;;;;30.80;99.90;;;;;;5097966;28;19929;-68
2022/09/08 12:01:41;;;;;;;;;;;30.70;99.90;;;;;;5088449;28;20404;-68
2022/09/08 12:04:22;;;;;;;;;;;30.40;99.90;;;;;;5087629;28;19924;-69
2022/09/08 12:07:04;;;;;;;;;;;29.00;99.90;;;;;;5107906;28;20365;-69
2022/09/08 12:09:48;;;;;;;;;;;29.40;99.90;;;;;;5084413;28;19928;-66
2022/09/08 12:12:24;;;;;;;;;;;28.30;99.90;;;;;;5091586;28;19924;-68
2022/09/08 12:14:55;;;;;;;;;;;28.70;99.90;;;;;;5089733;28;20370;-68
2022/09/08 12:17:32;;;;;;;;;;;29.90;99.90;;;;;;5090748;28;19939;-69
2022/09/08 12:20:17;;;;;;;;;;;29.80;99.90;;;;;;5086206;28;19952;-68
2022/09/08 12:22:50;;;;;;;;;;;29.30;99.90;;;;;;5079302;28;19928;-68
2022/09/08 12:25:28;;;;;;;;;;;28.50;99.90;;;;;;5088793;28;20465;-66
2022/09/08 12:28:02;;;;;;;;;;;25.80;99.90;;;;;;5089297;28;19986;-69
2022/09/08 12:30:31;;;;;;;;;;;28.20;99.90;;;;;;5085081;28;19924;-68
2022/09/08 12:33:17;;;;;;;;;;;29.40;99.90;;;;;;5089333;28;19928;-68
2022/09/08 12:35:49;;;;;;;;;;;29.40;99.90;;;;;;5090884;28;20311;-68
2022/09/08 12:38:22;;;;;;;;;;;29.90;99.90;;;;;;5087049;28;20292;-68
2022/09/08 12:41:00;;;;;;;;;;;28.40;99.90;;;;;;5076298;28;19924;-68
2022/09/08 12:43:30;;;;;;;;;;;27.20;99.90;;;;;;5089532;28;19931;-68
2022/09/08 12:46:09;;;;;;;;;;;26.40;99.90;;;;;;5090719;28;19924;-68
2022/09/08 12:48:39;;;;;;;;;;;25.10;99.90;;;;;;5082487;28;20349;-68
2022/09/08 12:51:11;;;;;;;;;;;24.50;99.90;;;;;;5070250;28;19931;-69
2022/09/08 12:54:05;;;;;;;;;;;25.10;99.90;;;;;;5081075;28;19924;-68
2022/09/08 12:56:37;;;;;;;;;;;25.70;99.90;;;;;;5081776;28;19924;-68
2022/09/08 12:59:13;;;;;;;;;;;24.70;99.90;;;;;;5088717;28;20391;-68
2022/09/08 13:01:41;;;;;;;;;;;23.80;99.90;;;;;;5090377;28;19931;-68
2022/09/08 13:04:23;;;;;;;;;;;23.30;99.90;;;;;;5087276;28;19924;-67
2022/09/08 13:06:59;;;;;;;;;;;23.10;99.90;;;;;;5076992;28;19924;-68
2022/09/08 13:09:32;;;;;;;;;;;22.90;99.90;;;;;;5084387;28;19924;-68
2022/09/08 13:12:05;;;;;;;;;;;23.10;99.90;;;;;;5078271;28;19934;-69
2022/09/08 13:14:47;;;;;;;;;;;24.70;99.90;;;;;;5083137;28;19924;-68
2022/09/08 13:17:17;;;;;;;;;;;25.10;99.90;;;;;;5087426;28;19924;-68
2022/09/08 13:19:49;;;;;;;;;;;25.00;99.90;;;;;;5086945;28;19924;-67
2022/09/08 13:22:23;;;;;;;;;;;23.90;99.90;;;;;;5093483;28;19928;-68
2022/09/08 13:24:54;;;;;;;;;;;23.30;99.90;;;;;;5081442;28;20407;-68
2022/09/08 13:27:27;;;;;;;;;;;24.00;99.90;;;;;;5094542;28;20342;-68
2022/09/08 13:30:00;;;;;;;;;;;25.00;99.90;;;;;;5088846;28;19944;-70
2022/09/08 13:32:34;;;;;;;;;;;26.40;99.90;;;;;;5089432;28;19985;-64
2022/09/08 13:35:11;;;;;;;;;;;26.60;99.90;;;;;;5093961;28;19973;-70
2022/09/08 13:37:47;;;;;;;;;;;26.60;99.90;;;;;;5093642;28;19924;-68
2022/09/08 13:40:19;;;;;;;;;;;26.40;99.90;;;;;;5092270;28;20053;-68
2022/09/08 13:43:01;;;;;;;;;;;25.40;99.90;;;;;;5086369;28;19931;-68
2022/09/08 13:45:35;;;;;;;;;;;25.80;99.90;;;;;;5092151;28;19924;-68
2022/09/08 13:48:08;;;;;;;;;;;27.00;99.90;;;;;;5088627;28;19928;-68
2022/09/08 13:50:44;;;;;;;;;;;28.50;99.90;;;;;;5088008;28;19924;-68
2022/09/08 13:53:25;;;;;;;;;;;29.00;99.90;;;;;;5099243;28;19924;-70
2022/09/08 13:56:04;;;;;;;;;;;29.80;99.90;;;;;;5090168;28;20391;-68
2022/09/08 13:58:36;;;;;;;;;;;29.50;99.90;;;;;;5093448;28;20380;-68
2022/09/08 14:01:06;;;;;;;;;;;29.00;99.90;;;;;;5087309;28;19929;-67
2022/09/08 14:03:34;;;;;;;;;;;27.80;99.90;;;;;;5089934;28;20399;-68
2022/09/08 14:06:01;;;;;;;;;;;26.00;99.90;;;;;;5092988;28;19924;-68
2022/09/08 14:08:31;;;;;;;;;;;24.80;99.90;;;;;;5088935;28;19928;-68
2022/09/08 14:11:07;;;;;;;;;;;24.10;99.90;;;;;;5091254;28;19924;-68
2022/09/08 14:13:34;;;;;;;;;;;24.20;99.90;;;;;;5088086;28;20357;-68
2022/09/08 14:16:06;;;;;;;;;;;24.00;99.90;;;;;;5090573;28;19928;-68
2022/09/08 14:18:40;;;;;;;;;;;23.60;99.90;;;;;;5093223;28;19924;-68
2022/09/08 14:21:11;;;;;;;;;;;23.60;99.90;;;;;;5089247;28;19928;-68
2022/09/08 14:23:50;;;;;;;;;;;23.40;99.90;;;;;;5093313;28;19924;-68
2022/09/08 14:26:26;;;;;;;;;;;24.70;99.90;;;;;;5079033;28;20002;-70
2022/09/08 14:28:56;;;;;;;;;;;26.40;99.90;;;;;;5092345;28;19924;-66
2022/09/08 14:31:27;;;;;;;;;;;28.10;99.90;;;;;;5092848;28;20395;-67
2022/09/08 14:33:57;;;;;;;;;;;29.00;99.90;;;;;;5092948;28;19924;-66
2022/09/08 14:36:37;;;;;;;;;;;28.80;99.90;;;;;;5092348;28;19924;-68
2022/09/08 14:39:13;;;;;;;;;;;26.80;99.90;;;;;;5083771;28;19928;-67
2022/09/08 14:41:50;;;;;;;;;;;25.40;99.90;;;;;;5083940;28;20403;-68
2022/09/08 14:44:19;;;;;;;;;;;24.70;99.90;;;;;;5079270;28;19924;-69
2022/09/08 14:46:51;;;;;;;;;;;24.60;99.90;;;;;;5092644;28;19924;-68
2022/09/08 14:49:27;;;;;;;;;;;24.70;99.90;;;;;;5092203;28;19924;-68